OZ1IEP-5 Jaegerspris DK current weather conditions

sailwx.info

Wind from 345 at 5 knots gusting 12

Air temperature 1.1° C
Dewpoint -1.4° C

Last reported at 2020-Feb-26 16:00 UTC.
Time now 2020-Feb-26 16:24 UTC

Location: N 55°51' E 011°59'.
View on Google Maps.

See reports from other nearby stations

  
Tides and Currents Weather Stations Pressure Air Temp Water Temp Dewpoint Dewpoint Depression Visibility Wind Speed Wind Dir Waves Ship Positions
date/time (UTC)wind fromknots sea level pressurealtimeterstation pressurevisibilityair tempwater tempwave heightnotes
2020-Feb-26 16:00 345 5 gusting 12 1.1
2020-Feb-26 15:50 348 7 gusting 10 1.1
2020-Feb-26 15:40 342 7 gusting 10 1.7
2020-Feb-26 15:30 348 5 gusting 10 1.7
2020-Feb-26 15:20 358 5 gusting 10 1.7
2020-Feb-26 15:10 352 6 gusting 10 1.7
2020-Feb-26 15:00 339 4 gusting 11 1.7
2020-Feb-26 14:50 346 5 gusting 10 1.7
2020-Feb-26 14:40 358 10 gusting 13 1.7
2020-Feb-26 14:30 348 10 gusting 13 1.7
2020-Feb-26 14:20 353 9 gusting 12 1.7
2020-Feb-26 14:10 357 7 gusting 12 1.7
2020-Feb-26 14:00 349 7 gusting 13 1.7
2020-Feb-26 13:50 357 7 gusting 11 2.2
2020-Feb-26 13:40 342 6 gusting 12 1.7
2020-Feb-26 13:30 353 7 gusting 12 2.2
2020-Feb-26 13:20 004 6 gusting 12 2.2
2020-Feb-26 13:10 352 6 gusting 13 2.2
2020-Feb-26 13:00 345 7 gusting 11 2.2
2020-Feb-26 12:50 358 5 gusting 10 2.2
2020-Feb-26 12:40 356 7 gusting 10 2.2
2020-Feb-26 12:30 015 6 gusting 12 2.2
2020-Feb-26 12:20 012 8 gusting 10 2.2
2020-Feb-26 12:10 013 8 gusting 12 2.2
2020-Feb-26 12:00 023 8 gusting 12 2.8
2020-Feb-26 11:50 003 7 gusting 12 2.8
2020-Feb-26 11:40 010 6 gusting 12 2.8
2020-Feb-26 11:30 006 7 gusting 12 2.2
2020-Feb-26 11:20 013 5 gusting 11 2.2
2020-Feb-26 11:10 022 6 gusting 11 2.2
2020-Feb-26 11:00 021 6 gusting 11 1.7
2020-Feb-26 10:50 020 6 gusting 10 1.7
2020-Feb-26 10:40 008 6 gusting 11 1.7
2020-Feb-26 10:30 010 6 gusting 11 1.7
2020-Feb-26 10:20 028 6 gusting 11 1.7
2020-Feb-26 10:10 017 6 gusting 13 1.7
2020-Feb-26 10:00 005 2 gusting 10 1.7
2020-Feb-26 09:50 001 4 gusting 8 1.7
2020-Feb-26 09:40 023 5 gusting 10 1.7
2020-Feb-26 09:30 023 6 gusting 13 1.1
2020-Feb-26 09:20 019 6 gusting 13 1.1
2020-Feb-26 09:10 024 6 gusting 13 1.1
2020-Feb-26 09:00 033 7 gusting 14 1.1
2020-Feb-26 08:50 009 8 gusting 14 1.7
2020-Feb-26 08:40 019 8 gusting 14 1.7
2020-Feb-26 08:30 029 4 gusting 8 1.7
2020-Feb-26 08:20 027 3 gusting 6 1.7
2020-Feb-26 08:10 033 2 gusting 6 1.7
2020-Feb-26 08:00 051 4 gusting 8 1.1
2020-Feb-26 07:50 027 4 gusting 7 1.1
2020-Feb-26 07:40 016 5 gusting 10 1.1
2020-Feb-26 07:30 022 3 gusting 6 1.1
2020-Feb-26 07:20 359 2 gusting 5 1.1
2020-Feb-26 07:10 002 1 gusting 5 1.1
2020-Feb-26 07:00 013 2 gusting 6 1.1
2020-Feb-26 06:50 002 2 gusting 5 1.1
2020-Feb-26 06:40 011 2 gusting 6 1.1
2020-Feb-26 06:30 019 4 gusting 7 1.1
2020-Feb-26 06:20 019 4 gusting 8 1.1
2020-Feb-26 06:10 017 4 gusting 10 1.1
2020-Feb-26 06:00 003 6 gusting 10 1.1
2020-Feb-26 05:50 001 4 gusting 7 1.1
2020-Feb-26 05:40 001 6 gusting 10 1.1
2020-Feb-26 05:30 358 5 gusting 8 1.1
2020-Feb-26 05:20 1.1
2020-Feb-26 05:10 001 7 gusting 10 1.1
2020-Feb-26 05:00 003 4 gusting 10 1.7
2020-Feb-26 04:50 007 4 gusting 7 1.7
2020-Feb-26 04:40 358 5 gusting 6 1.7
2020-Feb-26 04:30 326 2 gusting 4 1.7
2020-Feb-26 04:20 326 3 gusting 7 1.7
2020-Feb-26 04:10 306 8 gusting 13 1.7
2020-Feb-26 04:00 261 6 gusting 13 1.1
2020-Feb-26 03:50 255 5 gusting 13 1.1
2020-Feb-26 03:40 256 5 gusting 11 1.1
2020-Feb-26 03:30 256 5 gusting 13 1.1
2020-Feb-26 03:20 257 6 gusting 14 1.1
2020-Feb-26 03:10 263 5 gusting 13 1.1
2020-Feb-26 03:00 257 7 gusting 13 1.1
2020-Feb-26 02:50 261 6 gusting 15 1.1
2020-Feb-26 02:40 256 6 gusting 15 1.1
2020-Feb-26 02:30 258 7 gusting 14 1.1
2020-Feb-26 02:20 256 8 gusting 17 1.1
2020-Feb-26 02:10 257 6 gusting 18 1.1
2020-Feb-26 02:00 264 9 gusting 17 1.1
2020-Feb-26 01:50 260 6 gusting 17 1.7
2020-Feb-26 01:40 252 8 gusting 17 1.7
2020-Feb-26 01:30 273 8 gusting 17 1.7
2020-Feb-26 01:20 261 10 gusting 17 1.7
2020-Feb-26 01:10 268 7 gusting 19 1.7
2020-Feb-26 01:00 267 8 gusting 17 1.7
2020-Feb-26 00:50 278 11 gusting 20 1.7
2020-Feb-26 00:40 259 7 gusting 22 1.7
2020-Feb-26 00:30 261 7 gusting 20 1.7
2020-Feb-26 00:20 261 12 gusting 20 2.2
2020-Feb-26 00:10 264 12 gusting 19 2.2
2020-Feb-26 00:00 265 13 gusting 22 2.2
2020-Feb-25 23:50 268 11 gusting 21 2.2
2020-Feb-25 23:40 260 12 gusting 20 2.8
2020-Feb-25 23:30 264 13 gusting 22 2.8
2020-Feb-25 23:20 255 8 gusting 24 2.8
2020-Feb-25 23:10 261 11 gusting 22 2.8
2020-Feb-25 23:00 258 10 gusting 19 2.8
2020-Feb-25 22:50 260 10 gusting 19 2.8
2020-Feb-25 22:40 261 13 gusting 24 2.8
2020-Feb-25 22:30 256 13 gusting 26 2.8
2020-Feb-25 22:20 253 12 gusting 21 2.8
2020-Feb-25 22:10 258 13 gusting 20 2.8
2020-Feb-25 22:00 254 12 gusting 22 2.8
2020-Feb-25 21:50 257 12 gusting 22 2.2
2020-Feb-25 21:40 257 13 gusting 25 2.2
2020-Feb-25 21:30 249 13 gusting 21 2.2
2020-Feb-25 21:20 250 13 gusting 26 2.2
2020-Feb-25 21:10 251 13 gusting 22 2.2
2020-Feb-25 21:00 253 13 gusting 25 2.2
2020-Feb-25 20:50 252 11 gusting 26 2.2
2020-Feb-25 20:40 252 11 gusting 24 2.2
2020-Feb-25 20:30 252 13 gusting 25 2.2
2020-Feb-25 20:20 246 12 gusting 28 2.2
2020-Feb-25 20:10 258 16 gusting 28 2.8
2020-Feb-25 20:00 247 13 gusting 26 2.8
2020-Feb-25 19:50 250 13 gusting 25 2.8
2020-Feb-25 19:40 249 13 gusting 25 2.8
2020-Feb-25 19:30 246 14 gusting 26 2.8
2020-Feb-25 19:20 251 11 gusting 21 2.8
2020-Feb-25 19:10 251 15 gusting 25 2.8
2020-Feb-25 19:00 252 13 gusting 25 2.8
2020-Feb-25 18:50 257 12 gusting 26 2.8
2020-Feb-25 18:40 269 15 gusting 30 3.3
2020-Feb-25 18:30 253 13 gusting 26 3.3
2020-Feb-25 18:20 247 14 gusting 26 3.3
2020-Feb-25 18:10 253 13 gusting 28 3.3
2020-Feb-25 18:00 246 12 gusting 22 3.3
2020-Feb-25 17:50 248 13 gusting 24 3.3
2020-Feb-25 17:40 233 12 gusting 25 3.3
2020-Feb-25 17:30 239 12 gusting 24 3.3
2020-Feb-25 17:20 243 12 gusting 22 3.3
2020-Feb-25 17:10 239 11 gusting 22 3.9
2020-Feb-25 17:00 238 12 gusting 21 3.9
2020-Feb-25 16:50 230 12 gusting 22 3.9
2020-Feb-25 16:40 230 12 gusting 22 3.9
2020-Feb-25 16:30 225 12 gusting 24 4.4
2020-Feb-25 16:20 235 13 gusting 30 4.4
2020-Feb-25 16:10 234 13 gusting 26 4.4
2020-Feb-25 16:00 231 13 gusting 24 4.4
2020-Feb-25 15:50 225 10 gusting 20 4.4
2020-Feb-25 15:40 227 12 gusting 27 4.4
2020-Feb-25 15:30 222 10 gusting 25 4.4
2020-Feb-25 15:20 222 13 gusting 25 4.4
2020-Feb-25 15:10 209 13 gusting 26 4.4
2020-Feb-25 15:00 208 11 gusting 22 4.4
2020-Feb-25 14:50 207 14 gusting 28 4.4
2020-Feb-25 14:40 199 13 gusting 28 4.4
2020-Feb-25 14:30 206 12 gusting 20 4.4
2020-Feb-25 14:20 194 10 gusting 25 5.0
2020-Feb-25 14:10 191 14 gusting 32 5.0
2020-Feb-25 14:00 197 14 gusting 30 5.0
2020-Feb-25 13:50 186 14 gusting 22 5.6
2020-Feb-25 13:40 185 13 gusting 22 5.6
2020-Feb-25 13:30 197 13 gusting 28 5.6
2020-Feb-25 13:20 197 13 gusting 32 5.6
2020-Feb-25 13:10 182 15 gusting 22 6.1
2020-Feb-25 13:00 193 10 gusting 21 6.1
2020-Feb-25 12:50 199 9 gusting 21 6.1
2020-Feb-25 12:40 208 12 gusting 21 6.1
2020-Feb-25 12:30 197 7 gusting 12 6.1
2020-Feb-25 12:20 207 6 gusting 17 5.6
2020-Feb-25 12:10 199 9 gusting 17 5.6
2020-Feb-25 12:00 191 10 gusting 17 6.1
2020-Feb-25 11:50 180 8 gusting 20 6.1
2020-Feb-25 11:40 175 10 gusting 22 6.1
2020-Feb-25 11:30 197 8 gusting 15 6.1
2020-Feb-25 11:20 200 10 gusting 17 6.7
2020-Feb-25 11:10 200 10 gusting 17 6.1
2020-Feb-25 11:00 209 6 gusting 15 5.6
2020-Feb-25 10:50 215 7 gusting 18 5.6
2020-Feb-25 10:40 202 6 gusting 12 5.6
2020-Feb-25 10:30 195 5 gusting 12 5.6
2020-Feb-25 10:20 206 6 gusting 13 5.0
2020-Feb-25 10:10 218 6 gusting 19 5.6
2020-Feb-25 10:00 204 6 gusting 15 5.6
2020-Feb-25 09:50 201 6 gusting 18 5.0
2020-Feb-25 09:40 214 6 gusting 14 5.0
2020-Feb-25 09:30 219 7 gusting 17 5.6
2020-Feb-25 09:20 212 6 gusting 18 5.6
2020-Feb-25 09:10 214 8 gusting 17 5.6
2020-Feb-25 09:00 208 5 gusting 13 5.0
2020-Feb-25 08:50 208 6 gusting 13 5.0
2020-Feb-25 08:40 216 6 gusting 14 5.0
2020-Feb-25 08:30 214 6 gusting 18 5.0
2020-Feb-25 08:20 217 6 gusting 18 5.0
2020-Feb-25 08:10 210 7 gusting 17 4.4
2020-Feb-25 08:00 229 7 gusting 17 4.4
2020-Feb-25 07:50 218 5 gusting 14 4.4
2020-Feb-25 07:40 207 7 gusting 14 4.4
2020-Feb-25 07:30 212 6 gusting 13 4.4
2020-Feb-25 07:20 226 6 gusting 17 4.4
2020-Feb-25 07:10 217 5 gusting 17 3.9
2020-Feb-25 07:00 219 5 gusting 13 3.9
2020-Feb-25 06:50 222 6 gusting 15 3.9
2020-Feb-25 06:40 224 7 gusting 15 3.9
2020-Feb-25 06:30 217 6 gusting 13 3.9
2020-Feb-25 06:20 228 6 gusting 17 3.9
2020-Feb-25 06:10 216 7 gusting 17 3.9
2020-Feb-25 06:00 212 6 gusting 17 3.9
2020-Feb-25 05:50 225 5 gusting 13 3.9
2020-Feb-25 05:40 223 8 gusting 14 3.9
2020-Feb-25 05:30 216 5 gusting 13 3.9
2020-Feb-25 05:20 222 6 gusting 19 3.9
2020-Feb-25 05:10 218 6 gusting 11 3.9
2020-Feb-25 05:00 236 6 gusting 12 3.9
2020-Feb-25 04:50 220 6 gusting 13 4.4
2020-Feb-25 04:40 227 6 gusting 17 4.4
2020-Feb-25 04:30 209 6 gusting 17 4.4
2020-Feb-25 04:20 213 6 gusting 11 4.4
2020-Feb-25 04:10 236 6 gusting 13 4.4
2020-Feb-25 04:00 235 7 gusting 17 4.4
2020-Feb-25 03:50 217 6 gusting 15 3.9
2020-Feb-25 03:40 195 5 gusting 14 3.9
2020-Feb-25 03:30 181 7 gusting 15 3.9
2020-Feb-25 03:20 182 8 gusting 14 3.9
2020-Feb-25 03:10 159 8 gusting 13 3.3
2020-Feb-25 03:00 169 8 gusting 14 3.3
2020-Feb-25 02:50 152 6 gusting 10 3.3
2020-Feb-25 02:40 162 6 gusting 13 3.3
2020-Feb-25 02:30 150 12 gusting 20 2.8
2020-Feb-25 02:20 128 12 gusting 17 2.8
2020-Feb-25 02:10 140 11 gusting 18 2.8
2020-Feb-25 02:00 149 12 gusting 20 2.8
2020-Feb-25 01:50 139 12 gusting 21 2.2
2020-Feb-25 01:40 134 13 gusting 22 2.2
2020-Feb-25 01:30 138 14 gusting 24 2.2
2020-Feb-25 01:20 141 13 gusting 22 2.2
2020-Feb-25 01:10 149 12 gusting 22 2.8
2020-Feb-25 01:00 140 14 gusting 25 2.8
2020-Feb-25 00:50 143 17 gusting 24 2.8
2020-Feb-25 00:40 142 13 gusting 22 2.8
2020-Feb-25 00:30 141 13 gusting 22 2.8
2020-Feb-25 00:20 135 14 gusting 22 2.8
2020-Feb-25 00:10 125 13 gusting 22 2.8
2020-Feb-25 00:00 124 14 gusting 25 2.8
2020-Feb-24 23:50 134 12 gusting 25 2.8
2020-Feb-24 23:40 133 13 gusting 20 2.8
2020-Feb-24 23:30 139 14 gusting 22 2.8
2020-Feb-24 23:20 129 13 gusting 22 2.8
2020-Feb-24 23:10 134 14 gusting 22 2.8
2020-Feb-24 23:00 131 14 gusting 22 2.8
2020-Feb-24 22:50 128 14 gusting 19 2.8
2020-Feb-24 22:40 124 14 gusting 21 2.8
2020-Feb-24 22:30 127 11 gusting 20 2.8
2020-Feb-24 22:20 134 13 gusting 19 2.8
2020-Feb-24 22:10 124 10 gusting 14 2.8
2020-Feb-24 22:00 122 9 gusting 15 2.2
2020-Feb-24 21:50 125 8 gusting 15 2.2
2020-Feb-24 21:40 121 8 gusting 13 2.2
2020-Feb-24 21:30 112 9 gusting 13 2.2
2020-Feb-24 21:20 125 10 gusting 13 2.2
2020-Feb-24 21:10 129 10 gusting 13 2.2
2020-Feb-24 21:00 134 8 gusting 17 2.8
2020-Feb-24 20:50 141 8 gusting 17 2.8
2020-Feb-24 20:40 152 8 gusting 17 2.8
2020-Feb-24 20:30 149 7 gusting 15 3.3
2020-Feb-24 20:20 143 5 gusting 11 3.3
2020-Feb-24 20:10 151 5 gusting 10 3.3
2020-Feb-24 20:00 154 7 gusting 12 3.3
2020-Feb-24 19:50 141 6 gusting 8 3.3
2020-Feb-24 19:40 138 4 gusting 8 3.3
2020-Feb-24 19:30 138 4 gusting 10 3.3
2020-Feb-24 19:20 131 6 gusting 10 3.3
2020-Feb-24 19:10 130 6 gusting 10 3.3
2020-Feb-24 19:00 137 4 gusting 8 3.3
2020-Feb-24 18:50 139 5 gusting 8 3.3
2020-Feb-24 18:40 132 5 gusting 8 3.3
2020-Feb-24 18:30 144 4 gusting 8 3.3
2020-Feb-24 18:00 150 5 gusting 8 3.3
2020-Feb-24 17:50 152 4 gusting 7 3.3
2020-Feb-24 17:40 149 4 gusting 8 3.3
2020-Feb-24 17:30 154 4 gusting 7 3.3
2020-Feb-24 17:20 149 4 gusting 7 3.3
2020-Feb-24 17:10 160 4 gusting 6 3.3
2020-Feb-24 17:00 154 4 gusting 6 3.3
2020-Feb-24 16:50 145 3 gusting 5 3.3
2020-Feb-24 16:40 139 4 gusting 6 3.9
2020-Feb-24 16:30 147 3 gusting 5 3.9
2020-Feb-24 16:20 156 2 gusting 5 3.9
2020-Feb-24 16:10 162 2 gusting 4 3.9
2020-Feb-24 16:00 168 2 gusting 5 3.9